createdAt,value
2023-05-20T00:00:11.260Z,100471.81
2023-05-20T00:15:13.373Z,100470.53
2023-05-20T00:30:15.395Z,100463.22
2023-05-20T00:45:17.807Z,100463.31
2023-05-20T01:00:19.752Z,100457.84
2023-05-20T01:15:24.077Z,100452.03
2023-05-20T01:30:28.436Z,100452.13
2023-05-20T01:45:31.496Z,100452.03
2023-05-20T02:00:34.485Z,100451.47
2023-05-20T02:15:36.463Z,100462.00
2023-05-20T02:30:39.332Z,100465.09
2023-05-20T02:45:41.526Z,100480.06
2023-05-20T03:00:44.220Z,100476.91
2023-05-20T03:15:46.267Z,100499.00
2023-05-20T03:30:48.196Z,100487.22
2023-05-20T03:45:50.222Z,100491.53
2023-05-20T04:00:52.116Z,100495.31
2023-05-20T04:15:54.081Z,100501.41
2023-05-20T04:31:05.231Z,100517.25
2023-05-20T04:46:07.335Z,100520.03
2023-05-20T05:01:09.322Z,100517.31
2023-05-20T05:16:11.378Z,100510.13
2023-05-20T05:31:13.442Z,100535.38
2023-05-20T05:46:26.081Z,100532.03
2023-05-20T06:01:28.066Z,100523.31
2023-05-20T06:16:30.120Z,100537.44
2023-05-20T06:31:32.170Z,100541.84
2023-05-20T06:46:35.227Z,100534.78
2023-05-20T07:01:37.283Z,100537.00
2023-05-20T07:16:39.485Z,100538.56
2023-05-20T07:31:41.581Z,100536.00
2023-05-20T07:46:43.767Z,100541.63
2023-05-20T08:01:45.935Z,100533.78
2023-05-20T08:16:47.964Z,100522.19
2023-05-20T08:31:50.370Z,100508.75
2023-05-20T08:46:53.078Z,100520.03
2023-05-20T09:01:55.085Z,100520.41
2023-05-20T09:16:57.294Z,100506.34
2023-05-20T09:32:02.550Z,100492.63
2023-05-20T09:47:08.747Z,100469.13
2023-05-20T10:02:10.944Z,100482.88
2023-05-20T10:17:25.554Z,100455.09
2023-05-20T10:32:29.134Z,100436.34
2023-05-20T10:47:32.236Z,100423.78
2023-05-20T11:02:34.706Z,100422.69
2023-05-20T11:17:36.985Z,100414.25
2023-05-20T11:32:38.975Z,100411.81
2023-05-20T11:47:41.651Z,100421.53
2023-05-20T12:02:44.326Z,100396.94
2023-05-20T12:17:48.840Z,100380.75
2023-05-20T12:32:52.253Z,100369.75
2023-05-20T12:47:55.419Z,100350.06
2023-05-20T13:02:57.574Z,100347.69
2023-05-20T13:18:01.655Z,100335.44
2023-05-20T13:33:04.098Z,100320.41
2023-05-20T13:48:06.977Z,100316.78
2023-05-20T14:03:10.936Z,100312.19
2023-05-20T14:18:13.113Z,100313.66
2023-05-20T14:33:17.091Z,100296.59
2023-05-20T14:48:32.483Z,100290.97
2023-05-20T15:03:34.589Z,100289.38
2023-05-20T15:18:36.712Z,100289.22
2023-05-20T15:33:38.949Z,100291.59
2023-05-20T15:48:41.687Z,100289.22
2023-05-20T16:03:44.525Z,100290.75
2023-05-20T16:18:46.722Z,100289.97
2023-05-20T16:33:48.765Z,100309.59
2023-05-20T16:48:51.210Z,100290.47
2023-05-20T17:03:53.166Z,100288.03
2023-05-20T17:18:54.977Z,100297.53
2023-05-20T17:33:56.927Z,100290.91
2023-05-20T17:48:59.129Z,100305.38
2023-05-20T18:04:04.564Z,100302.97
2023-05-20T18:19:06.775Z,100295.63
2023-05-20T18:34:08.807Z,100289.13
2023-05-20T18:49:11.337Z,100295.75
2023-05-20T19:04:13.258Z,100291.50
2023-05-20T19:19:15.367Z,100273.09
2023-05-20T19:34:17.454Z,100258.72
2023-05-20T19:49:19.717Z,100256.44
2023-05-20T20:04:21.715Z,100295.03
2023-05-20T20:19:23.813Z,100295.72
2023-05-20T20:34:25.884Z,100286.22
2023-05-20T20:49:28.569Z,100299.00
2023-05-20T21:04:30.991Z,100286.38
2023-05-20T21:19:32.945Z,100281.28
2023-05-20T21:34:34.951Z,100288.94
2023-05-20T21:49:38.495Z,100290.13
2023-05-20T22:04:40.423Z,100274.69
2023-05-20T22:19:42.293Z,100273.16
2023-05-20T22:34:45.488Z,100269.91
2023-05-20T22:49:47.464Z,100258.13
2023-05-20T23:04:50.273Z,100259.97
2023-05-20T23:19:52.333Z,100255.94
2023-05-20T23:34:55.329Z,100248.22
2023-05-20T23:49:58.273Z,100252.25
